Time;durP1;ratioP1;P1;durP2;ratioP2;P2;SDS_P1;SDS_P2;PMS_P1;PMS_P2;Temp;Humidity;BMP_temperature;BMP_pressure;BME280_temperature;BME280_humidity;BME280_pressure;Samples;Min_cycle;Max_cycle;Signal;HPM_P1;HPM_P2
2021/11/13 00:00:46;;;;;;;31.23;12.60;;;2.10;97.30;;;;;;5016283;28;20208;-84
2021/11/13 00:03:12;;;;;;;29.83;12.63;;;2.20;97.30;;;;;;5012764;28;20643;-84
2021/11/13 00:05:42;;;;;;;32.93;12.43;;;2.30;97.30;;;;;;5012599;28;20570;-84
2021/11/13 00:08:08;;;;;;;31.50;13.77;;;2.40;97.30;;;;;;5012559;28;20921;-84
2021/11/13 00:10:34;;;;;;;34.57;11.20;;;2.40;97.30;;;;;;5013075;28;20463;-85
2021/11/13 00:13:01;;;;;;;34.67;12.77;;;2.40;97.30;;;;;;5012440;28;20207;-84
2021/11/13 00:15:28;;;;;;;32.77;13.93;;;2.40;97.30;;;;;;5011241;28;20478;-84
2021/11/13 00:17:55;;;;;;;30.33;13.60;;;2.40;97.30;;;;;;5014279;28;20420;-84
2021/11/13 00:20:22;;;;;;;30.40;12.67;;;2.40;97.30;;;;;;5013877;28;20420;-84
2021/11/13 00:22:48;;;;;;;32.63;13.63;;;2.40;97.30;;;;;;5027126;28;20411;-84
2021/11/13 00:25:15;;;;;;;33.67;13.67;;;2.30;97.30;;;;;;5032378;28;20439;-84
2021/11/13 00:27:42;;;;;;;33.93;11.73;;;2.30;97.30;;;;;;5030899;28;20419;-84
2021/11/13 00:30:10;;;;;;;31.17;14.07;;;2.30;97.30;;;;;;5033732;28;20411;-85
2021/11/13 00:32:36;;;;;;;33.90;12.87;;;2.30;97.30;;;;;;5034631;28;20609;-82
2021/11/13 00:35:02;;;;;;;30.43;12.20;;;2.40;97.30;;;;;;5034755;28;20545;-82
2021/11/13 00:37:28;;;;;;;33.23;13.53;;;2.40;97.30;;;;;;5035896;28;20184;-82
2021/11/13 00:39:54;;;;;;;29.60;12.83;;;2.50;97.30;;;;;;5034929;28;20411;-82
2021/11/13 00:42:19;;;;;;;27.37;12.40;;;2.50;97.30;;;;;;5035567;28;20176;-82
2021/11/13 00:44:48;;;;;;;34.43;13.50;;;2.50;97.30;;;;;;5035784;28;20328;-82
2021/11/13 00:47:13;;;;;;;34.43;12.20;;;2.50;97.30;;;;;;5035805;28;20180;-82
2021/11/13 00:49:39;;;;;;;33.20;13.53;;;2.50;97.30;;;;;;5035669;28;20518;-82
2021/11/13 00:52:05;;;;;;;48.63;14.23;;;2.50;97.30;;;;;;5036043;28;20185;-82
2021/11/13 00:54:33;;;;;;;42.60;13.53;;;2.40;97.30;;;;;;5035801;28;20243;-83
2021/11/13 00:56:58;;;;;;;41.23;13.80;;;2.40;97.30;;;;;;5035767;28;20415;-82
2021/11/13 00:59:24;;;;;;;37.90;13.43;;;2.40;97.30;;;;;;5029432;28;20497;-82
2021/11/13 01:01:49;;;;;;;48.07;13.70;;;2.40;97.30;;;;;;5016803;28;20265;-82
2021/11/13 01:04:15;;;;;;;32.80;11.53;;;2.40;97.30;;;;;;5030860;28;20596;-82
2021/11/13 01:06:41;;;;;;;29.63;11.70;;;2.40;97.30;;;;;;5030946;28;20201;-82
2021/11/13 01:09:07;;;;;;;21.57;10.70;;;2.40;97.30;;;;;;5031097;28;20212;-82
2021/11/13 01:11:33;;;;;;;29.10;11.80;;;2.40;97.30;;;;;;5030663;28;20181;-82
2021/11/13 01:13:59;;;;;;;30.90;11.00;;;2.40;97.30;;;;;;5030222;28;20416;-82
2021/11/13 01:16:26;;;;;;;23.97;11.70;;;2.40;97.30;;;;;;5031362;28;20450;-82
2021/11/13 01:18:53;;;;;;;23.87;10.27;;;2.40;97.30;;;;;;5034789;28;20488;-82
2021/11/13 01:21:19;;;;;;;30.17;11.33;;;2.50;97.30;;;;;;5035010;28;20503;-82
2021/11/13 01:23:45;;;;;;;28.70;10.43;;;2.50;97.30;;;;;;5033924;28;21108;-82
2021/11/13 01:26:11;;;;;;;24.70;11.13;;;2.50;97.30;;;;;;5034671;28;20435;-83
2021/11/13 01:28:36;;;;;;;27.97;10.53;;;2.60;97.30;;;;;;5033741;28;20415;-82
2021/11/13 01:31:06;;;;;;;27.60;10.90;;;2.60;97.30;;;;;;5033566;28;20186;-82
2021/11/13 01:33:35;;;;;;;25.07;10.40;;;2.60;97.30;;;;;;5033655;28;20339;-82
2021/11/13 01:36:02;;;;;;;24.57;10.77;;;2.60;97.30;;;;;;5033186;28;20474;-82
2021/11/13 01:38:28;;;;;;;28.00;10.40;;;2.60;97.30;;;;;;5034716;28;20418;-82
2021/11/13 01:40:54;;;;;;;23.33;10.00;;;2.60;97.30;;;;;;5035005;28;20426;-82
2021/11/13 01:43:20;;;;;;;24.20;9.97;;;2.60;97.30;;;;;;5034928;28;20408;-82
2021/11/13 01:45:45;;;;;;;26.97;11.50;;;2.70;97.30;;;;;;5035226;28;20220;-82
2021/11/13 01:48:12;;;;;;;27.23;10.70;;;2.70;97.30;;;;;;5035049;28;20246;-82
2021/11/13 01:50:41;;;;;;;34.47;11.93;;;2.80;97.30;;;;;;5034700;28;20672;-82
2021/11/13 01:53:08;;;;;;;25.80;10.90;;;2.80;97.30;;;;;;5036142;28;20760;-82
2021/11/13 01:55:36;;;;;;;29.63;11.07;;;2.80;97.30;;;;;;5034861;28;20466;-81
2021/11/13 01:58:04;;;;;;;26.47;11.03;;;2.90;97.30;;;;;;5034974;28;20775;-82
2021/11/13 02:00:34;;;;;;;36.87;12.97;;;2.90;97.30;;;;;;5034682;28;20423;-82
2021/11/13 02:03:02;;;;;;;34.80;11.47;;;2.90;97.30;;;;;;5034772;28;20514;-82
2021/11/13 02:05:27;;;;;;;29.97;12.43;;;3.00;97.30;;;;;;5034498;28;20807;-82
2021/11/13 02:07:54;;;;;;;30.00;11.93;;;3.00;97.30;;;;;;5034802;28;20416;-81
2021/11/13 02:10:20;;;;;;;30.13;12.50;;;3.00;97.30;;;;;;5035653;28;20231;-82
2021/11/13 02:12:46;;;;;;;29.27;10.97;;;3.00;97.30;;;;;;5036041;28;20430;-82
2021/11/13 02:15:13;;;;;;;28.00;11.40;;;3.00;97.30;;;;;;5034196;28;20469;-82
2021/11/13 02:17:39;;;;;;;23.40;11.83;;;3.10;97.30;;;;;;5034362;28;20419;-82
2021/11/13 02:20:20;;;;;;;27.23;11.13;;;3.10;97.30;;;;;;5030290;28;20423;-82
2021/11/13 02:22:46;;;;;;;36.17;11.23;;;3.10;97.30;;;;;;5034430;28;20480;-82
2021/11/13 02:25:19;;;;;;;27.80;11.90;;;3.10;97.30;;;;;;5033791;28;20438;-82
2021/11/13 02:27:45;;;;;;;30.63;12.60;;;3.10;97.30;;;;;;5034127;28;20423;-82
2021/11/13 02:30:12;;;;;;;28.23;10.17;;;3.20;97.30;;;;;;5033763;28;20565;-82
2021/11/13 02:32:39;;;;;;;26.67;11.07;;;3.20;97.30;;;;;;5035078;28;20852;-82
2021/11/13 02:35:08;;;;;;;26.40;10.77;;;3.20;97.30;;;;;;5033995;28;20473;-82
2021/11/13 02:37:35;;;;;;;29.13;11.00;;;3.20;97.30;;;;;;5034643;28;20944;-79
2021/11/13 02:40:02;;;;;;;26.03;10.83;;;3.20;97.30;;;;;;5033453;28;20607;-78
2021/11/13 02:42:29;;;;;;;30.07;11.03;;;3.20;97.30;;;;;;5032822;28;20961;-79
2021/11/13 02:44:54;;;;;;;33.10;11.40;;;3.20;97.30;;;;;;5033168;28;20458;-79
2021/11/13 02:47:21;;;;;;;29.50;10.73;;;3.30;97.30;;;;;;5033195;28;20427;-79
2021/11/13 02:49:47;;;;;;;25.70;9.83;;;3.30;97.30;;;;;;5034336;28;20673;-78
2021/11/13 02:52:13;;;;;;;31.47;10.90;;;3.30;97.30;;;;;;5032307;28;20423;-79
2021/11/13 02:54:46;;;;;;;31.77;11.87;;;3.30;97.30;;;;;;5032884;28;20462;-78
2021/11/13 02:57:12;;;;;;;29.10;10.20;;;3.40;97.30;;;;;;5033096;28;20426;-77
2021/11/13 02:59:46;;;;;;;27.47;11.80;;;3.40;97.30;;;;;;5034028;28;20415;-80
2021/11/13 03:02:12;;;;;;;29.23;11.83;;;3.40;97.30;;;;;;5033766;28;20418;-80
2021/11/13 03:04:38;;;;;;;33.33;10.47;;;3.50;97.30;;;;;;5033359;28;20415;-80
2021/11/13 03:07:04;;;;;;;19.80;9.03;;;3.50;97.30;;;;;;5033559;28;20212;-81
2021/11/13 03:09:30;;;;;;;31.63;11.57;;;3.50;97.30;;;;;;5050385;28;20434;-81
2021/11/13 03:11:56;;;;;;;32.30;10.83;;;3.60;97.30;;;;;;5034522;28;20495;-81
2021/11/13 03:14:22;;;;;;;24.50;10.93;;;3.60;97.30;;;;;;5033186;28;20493;-80
2021/11/13 03:16:48;;;;;;;33.83;10.57;;;3.60;97.30;;;;;;5032377;28;20183;-80
2021/11/13 03:19:13;;;;;;;23.73;9.90;;;3.70;97.30;;;;;;5033471;28;20639;-79
2021/11/13 03:21:43;;;;;;;29.30;10.47;;;3.70;97.30;;;;;;5033044;28;20210;-80
2021/11/13 03:24:10;;;;;;;28.30;10.10;;;3.80;97.30;;;;;;5031927;28;20714;-81
2021/11/13 03:26:38;;;;;;;28.50;10.30;;;3.80;97.30;;;;;;5032752;28;20952;-80
2021/11/13 03:29:16;;;;;;;26.00;9.47;;;3.80;97.30;;;;;;5032474;28;20442;-80
2021/11/13 03:31:43;;;;;;;24.37;10.10;;;3.90;97.30;;;;;;5033445;28;20507;-80
2021/11/13 03:34:09;;;;;;;23.80;9.33;;;3.90;97.30;;;;;;5033813;28;20439;-80
2021/11/13 03:36:35;;;;;;;21.43;9.97;;;4.00;97.30;;;;;;5034140;28;20474;-80
2021/11/13 03:39:01;;;;;;;27.60;10.27;;;4.00;97.30;;;;;;5034247;28;20646;-80
2021/11/13 03:41:29;;;;;;;27.03;9.43;;;4.10;97.30;;;;;;5033839;28;20700;-80
2021/11/13 03:43:54;;;;;;;25.70;9.40;;;4.10;97.30;;;;;;5033816;28;20423;-80
2021/11/13 03:46:20;;;;;;;21.23;8.73;;;4.10;97.30;;;;;;5033866;28;20446;-79
2021/11/13 03:48:46;;;;;;;26.63;10.13;;;4.20;97.30;;;;;;5033645;28;20281;-80
2021/11/13 03:51:12;;;;;;;23.23;8.80;;;4.20;97.30;;;;;;5034300;28;20427;-80
2021/11/13 03:53:38;;;;;;;19.60;8.80;;;4.20;97.30;;;;;;5033770;28;20181;-80
2021/11/13 03:56:04;;;;;;;22.20;8.20;;;4.20;97.30;;;;;;5033784;28;20471;-80
2021/11/13 03:58:30;;;;;;;23.90;9.43;;;4.20;97.30;;;;;;5033794;28;20203;-80
2021/11/13 04:00:56;;;;;;;21.97;8.07;;;4.20;97.30;;;;;;5034097;28;20415;-80
2021/11/13 04:03:21;;;;;;;31.20;9.73;;;4.20;97.30;;;;;;5034075;28;20184;-80
2021/11/13 04:05:47;;;;;;;25.20;10.80;;;4.20;97.30;;;;;;5033705;28;20196;-81
2021/11/13 04:08:14;;;;;;;20.80;8.70;;;4.20;97.30;;;;;;5033740;28;20184;-80
2021/11/13 04:10:40;;;;;;;17.83;9.73;;;4.20;97.30;;;;;;5014933;28;20452;-79
2021/11/13 04:13:06;;;;;;;21.80;9.83;;;4.20;97.30;;;;;;5014325;28;20427;-81
2021/11/13 04:15:32;;;;;;;24.97;9.67;;;4.20;97.30;;;;;;5014418;28;20750;-80
2021/11/13 04:17:58;;;;;;;21.07;9.03;;;4.20;97.30;;;;;;5014201;28;20420;-80
2021/11/13 04:20:23;;;;;;;22.87;9.90;;;4.20;97.30;;;;;;5027690;28;20176;-80
2021/11/13 04:22:51;;;;;;;21.57;8.50;;;4.20;97.30;;;;;;5033861;28;20248;-80
2021/11/13 04:25:17;;;;;;;24.87;9.67;;;4.10;97.30;;;;;;5033832;28;20812;-80
2021/11/13 04:27:43;;;;;;;18.33;8.17;;;4.10;97.30;;;;;;5033660;28;20414;-80
2021/11/13 04:30:12;;;;;;;18.80;8.70;;;4.10;97.30;;;;;;5035480;28;20951;-80
2021/11/13 04:32:39;;;;;;;20.20;8.67;;;4.10;97.30;;;;;;5034055;28;20730;-80
2021/11/13 04:37:40;;;;;;;21.60;8.70;;;4.10;97.30;;;;;;5035628;28;20924;-79
2021/11/13 04:40:06;;;;;;;26.97;10.60;;;4.10;97.30;;;;;;5050530;28;20427;-80
2021/11/13 04:42:31;;;;;;;21.13;8.60;;;4.10;97.30;;;;;;5033581;28;20172;-80
2021/11/13 04:44:57;;;;;;;27.20;8.30;;;4.10;97.30;;;;;;5050433;28;20458;-80
2021/11/13 04:47:23;;;;;;;19.83;8.60;;;4.10;97.30;;;;;;5033802;28;20267;-80
2021/11/13 04:49:49;;;;;;;16.60;8.13;;;4.10;97.30;;;;;;5034092;28;20185;-80
2021/11/13 04:52:14;;;;;;;20.60;9.10;;;4.10;97.30;;;;;;5033487;28;20217;-80
2021/11/13 04:54:40;;;;;;;21.37;8.63;;;4.10;97.30;;;;;;5033771;28;21060;-80
2021/11/13 04:57:07;;;;;;;17.20;8.20;;;4.10;97.30;;;;;;5034263;28;20188;-80
2021/11/13 04:59:33;;;;;;;19.00;7.57;;;4.00;97.30;;;;;;5034205;28;20535;-80
2021/11/13 05:01:59;;;;;;;16.80;7.73;;;3.90;97.30;;;;;;5033164;28;20484;-80
2021/11/13 05:04:24;;;;;;;17.80;7.97;;;3.80;97.30;;;;;;5034517;28;20187;-80
2021/11/13 05:06:50;;;;;;;22.77;8.70;;;3.80;97.30;;;;;;5034298;28;20502;-80
2021/11/13 05:09:15;;;;;;;21.40;7.90;;;3.70;97.30;;;;;;5033216;28;20235;-80
2021/11/13 05:11:41;;;;;;;19.97;7.70;;;3.70;97.30;;;;;;5050359;28;20188;-79
2021/11/13 05:14:07;;;;;;;16.57;7.60;;;3.70;97.30;;;;;;5033527;28;20200;-80
2021/11/13 05:16:32;;;;;;;24.30;9.13;;;3.70;97.30;;;;;;5035661;28;20200;-80
2021/11/13 05:18:58;;;;;;;20.80;9.13;;;3.70;97.30;;;;;;5037034;28;20173;-80
2021/11/13 05:21:23;;;;;;;24.57;10.33;;;3.70;97.30;;;;;;5037548;28;20551;-80
2021/11/13 05:23:49;;;;;;;24.47;8.53;;;3.70;97.30;;;;;;5036308;28;20580;-80
2021/11/13 05:26:14;;;;;;;25.60;9.23;;;3.70;97.30;;;;;;5036870;28;20729;-80
2021/11/13 05:28:43;;;;;;;22.90;7.93;;;3.80;97.30;;;;;;5053051;28;20561;-80
2021/11/13 05:31:10;;;;;;;21.60;9.13;;;3.70;97.30;;;;;;5036845;28;20272;-80
2021/11/13 05:33:36;;;;;;;18.13;7.60;;;3.70;97.30;;;;;;5036542;28;20479;-80
2021/11/13 05:36:02;;;;;;;23.50;8.07;;;3.70;97.30;;;;;;5036356;28;20489;-80
2021/11/13 05:38:28;;;;;;;19.07;9.37;;;3.70;97.30;;;;;;5036685;28;20777;-80
2021/11/13 05:40:53;;;;;;;19.63;8.10;;;3.70;97.30;;;;;;5036571;28;20464;-80
2021/11/13 05:43:19;;;;;;;18.23;8.17;;;3.70;97.30;;;;;;5036374;28;20183;-79
2021/11/13 05:45:47;;;;;;;18.97;9.00;;;3.80;97.30;;;;;;5036513;28;20738;-80
2021/11/13 05:48:13;;;;;;;21.70;7.60;;;3.80;97.30;;;;;;5036501;28;20183;-80
2021/11/13 05:50:39;;;;;;;18.13;8.20;;;3.80;97.30;;;;;;5036720;28;20423;-80
2021/11/13 05:53:05;;;;;;;23.40;10.30;;;3.80;97.30;;;;;;5036189;28;20411;-80
2021/11/13 05:55:30;;;;;;;23.60;9.00;;;3.90;97.30;;;;;;5036338;28;20294;-80
2021/11/13 05:57:59;;;;;;;18.33;7.80;;;3.90;97.30;;;;;;5036307;28;20177;-80
2021/11/13 06:00:26;;;;;;;20.80;8.00;;;4.00;97.30;;;;;;5036462;28;20184;-80
2021/11/13 06:02:52;;;;;;;21.40;8.43;;;4.00;97.30;;;;;;5036115;28;20850;-80
2021/11/13 06:05:18;;;;;;;15.20;8.03;;;4.00;97.30;;;;;;5036109;28;20447;-80
2021/11/13 06:07:45;;;;;;;15.73;7.53;;;4.10;97.30;;;;;;5036194;28;20790;-80
2021/11/13 06:10:13;;;;;;;23.50;8.20;;;4.10;97.30;;;;;;5036234;28;20275;-80
2021/11/13 06:12:39;;;;;;;15.53;6.80;;;4.10;97.30;;;;;;5038517;28;20407;-80
2021/11/13 06:15:05;;;;;;;17.27;7.07;;;4.20;97.30;;;;;;5036701;28;20988;-80
2021/11/13 06:17:31;;;;;;;19.70;7.43;;;4.20;97.30;;;;;;5036415;28;20411;-80
2021/11/13 06:19:57;;;;;;;17.40;7.60;;;4.30;97.30;;;;;;5036959;28;20429;-81
2021/11/13 06:22:23;;;;;;;14.30;6.37;;;4.30;97.30;;;;;;5037999;28;20527;-80
2021/11/13 06:24:49;;;;;;;17.97;6.27;;;4.40;97.30;;;;;;5036579;28;21016;-80
2021/11/13 06:27:16;;;;;;;18.33;8.40;;;4.40;97.30;;;;;;5035910;28;20427;-80
2021/11/13 06:29:42;;;;;;;13.40;7.67;;;4.50;97.30;;;;;;5036621;28;20423;-81
2021/11/13 06:32:08;;;;;;;21.97;7.53;;;4.50;97.30;;;;;;5037150;28;20478;-80
2021/11/13 06:34:34;;;;;;;17.57;7.57;;;4.60;97.30;;;;;;5038575;28;20458;-80
2021/11/13 06:37:00;;;;;;;14.20;5.97;;;4.60;97.30;;;;;;5036755;28;20419;-80
2021/11/13 06:39:26;;;;;;;17.33;6.80;;;4.70;97.30;;;;;;5036166;28;20427;-81
2021/11/13 06:41:51;;;;;;;14.23;7.10;;;4.70;97.30;;;;;;5036894;28;20606;-80
2021/11/13 06:44:17;;;;;;;14.27;6.33;;;4.80;97.30;;;;;;5022507;28;20185;-80
2021/11/13 06:46:43;;;;;;;19.83;7.33;;;4.80;97.30;;;;;;5017294;28;20236;-80
2021/11/13 06:49:09;;;;;;;13.93;7.10;;;4.80;97.30;;;;;;5016811;28;20292;-81
2021/11/13 06:51:35;;;;;;;11.90;6.83;;;4.90;97.30;;;;;;5017545;28;20184;-81
2021/11/13 06:54:01;;;;;;;12.20;6.07;;;4.90;97.30;;;;;;5016680;28;20416;-80
2021/11/13 06:56:26;;;;;;;15.70;7.17;;;5.00;97.30;;;;;;5017319;28;20209;-81
2021/11/13 06:58:52;;;;;;;22.27;6.70;;;5.00;97.30;;;;;;5035460;28;20524;-81
2021/11/13 07:01:18;;;;;;;13.77;5.77;;;5.00;97.30;;;;;;5036856;28;20785;-82
2021/11/13 07:03:44;;;;;;;16.63;6.67;;;5.10;97.30;;;;;;5036942;28;20411;-81
2021/11/13 07:06:09;;;;;;;12.47;5.53;;;5.10;97.30;;;;;;5037094;28;20192;-81
2021/11/13 07:08:35;;;;;;;14.97;6.63;;;5.10;97.30;;;;;;5037399;28;20187;-82
2021/11/13 07:11:01;;;;;;;15.87;6.60;;;5.10;97.30;;;;;;5037382;28;20230;-81
2021/11/13 07:13:26;;;;;;;12.30;6.67;;;5.10;97.30;;;;;;5036663;28;20271;-81
2021/11/13 07:15:53;;;;;;;12.53;6.50;;;5.10;97.30;;;;;;5036569;28;20220;-82
2021/11/13 07:18:19;;;;;;;13.50;5.70;;;5.20;97.30;;;;;;5036202;28;20188;-81
2021/11/13 07:20:55;;;;;;;12.80;5.90;;;5.20;97.30;;;;;;5036438;28;20426;-82
2021/11/13 07:23:21;;;;;;;14.40;7.00;;;5.20;97.30;;;;;;5036784;28;20407;-81
2021/11/13 07:25:48;;;;;;;10.30;5.30;;;5.20;97.30;;;;;;5036517;28;20802;-83
2021/11/13 07:28:15;;;;;;;13.13;6.20;;;5.30;97.30;;;;;;5037042;28;20316;-81
2021/11/13 07:30:42;;;;;;;13.20;7.07;;;5.30;97.30;;;;;;5029116;28;20424;-82
2021/11/13 07:33:11;;;;;;;11.10;5.90;;;5.30;97.30;;;;;;5016764;28;21054;-81
2021/11/13 07:35:39;;;;;;;14.00;5.83;;;5.30;97.30;;;;;;5016377;28;20997;-81
2021/11/13 07:38:05;;;;;;;12.80;5.70;;;5.30;97.30;;;;;;5017080;28;20951;-82
2021/11/13 07:40:31;;;;;;;12.07;5.77;;;5.30;97.30;;;;;;5018103;28;20456;-83
2021/11/13 07:42:57;;;;;;;14.53;6.00;;;5.40;97.30;;;;;;5017718;28;20582;-82
2021/11/13 07:45:23;;;;;;;14.90;7.47;;;5.40;97.30;;;;;;5016153;28;20527;-80
2021/11/13 07:47:49;;;;;;;17.40;6.90;;;5.40;97.30;;;;;;5017594;28;20420;-81
2021/11/13 07:50:16;;;;;;;17.70;6.67;;;5.40;97.30;;;;;;5017863;28;20556;-80
2021/11/13 07:52:42;;;;;;;14.23;5.40;;;5.50;97.30;;;;;;5016512;28;20189;-80
2021/11/13 07:55:09;;;;;;;11.00;5.90;;;5.50;97.30;;;;;;5034785;28;20474;-80
2021/11/13 07:57:35;;;;;;;17.20;7.30;;;5.50;97.30;;;;;;5037212;28;20513;-80
2021/11/13 08:00:01;;;;;;;14.00;6.43;;;5.50;97.30;;;;;;5035799;28;20462;-80
2021/11/13 08:02:27;;;;;;;12.93;6.00;;;5.60;97.30;;;;;;5036762;28;20637;-79
2021/11/13 08:04:54;;;;;;;12.20;6.30;;;5.60;97.30;;;;;;5037167;28;20439;-81
2021/11/13 08:07:20;;;;;;;21.50;7.37;;;5.60;97.30;;;;;;5036226;28;20419;-81
2021/11/13 08:09:45;;;;;;;14.10;7.03;;;5.60;97.30;;;;;;5035446;28;20939;-82
2021/11/13 08:12:33;;;;;;;16.17;7.23;;;5.60;97.30;;;;;;5035780;28;20632;-81
2021/11/13 08:14:59;;;;;;;13.57;5.70;;;5.60;97.30;;;;;;5035946;28;20276;-81
2021/11/13 08:17:24;;;;;;;15.27;6.23;;;5.60;97.30;;;;;;5037137;28;20838;-81
2021/11/13 08:19:50;;;;;;;20.30;6.93;;;5.70;97.30;;;;;;5036072;28;20180;-81
2021/11/13 08:22:16;;;;;;;12.33;5.63;;;5.70;97.30;;;;;;5034999;28;20199;-84
2021/11/13 08:24:41;;;;;;;11.53;5.60;;;5.70;97.30;;;;;;5033536;28;20175;-83
2021/11/13 08:27:09;;;;;;;10.73;5.57;;;5.70;97.30;;;;;;5033341;28;20177;-83
2021/11/13 08:29:35;;;;;;;15.67;6.70;;;5.80;97.30;;;;;;5035993;28;20690;-84
2021/11/13 08:32:01;;;;;;;16.80;6.50;;;5.80;97.30;;;;;;5033640;28;20483;-83
2021/11/13 08:34:27;;;;;;;15.90;7.40;;;5.80;97.30;;;;;;5029868;28;20956;-82
2021/11/13 08:36:52;;;;;;;16.10;7.00;;;5.80;97.30;;;;;;5030897;28;20411;-84
2021/11/13 08:39:18;;;;;;;13.70;6.80;;;5.80;97.30;;;;;;5030840;28;20172;-85
2021/11/13 08:41:44;;;;;;;14.30;7.40;;;5.80;97.30;;;;;;5030472;28;20535;-85
2021/11/13 08:44:10;;;;;;;16.97;6.53;;;5.80;97.30;;;;;;5030165;28;20211;-84
2021/11/13 08:46:35;;;;;;;13.10;7.10;;;5.80;97.30;;;;;;5030363;28;20240;-84
2021/11/13 08:49:02;;;;;;;13.00;7.13;;;5.80;97.30;;;;;;5031030;28;20188;-83
2021/11/13 08:51:28;;;;;;;16.67;6.50;;;5.90;97.30;;;;;;5033684;28;20177;-85
2021/11/13 08:53:54;;;;;;;15.30;6.80;;;5.90;97.30;;;;;;5035253;28;20777;-84
2021/11/13 08:56:24;;;;;;;18.50;7.47;;;5.90;97.30;;;;;;5034510;28;20466;-85
2021/11/13 08:58:52;;;;;;;14.27;6.50;;;5.90;97.30;;;;;;5034918;28;20642;-83
2021/11/13 09:01:18;;;;;;;18.30;7.83;;;6.00;97.30;;;;;;5018887;28;20419;-85
2021/11/13 09:03:44;;;;;;;12.30;6.77;;;6.00;97.30;;;;;;5016972;28;20415;-83
2021/11/13 09:06:16;;;;;;;18.37;7.47;;;6.10;97.30;;;;;;5018028;28;21084;-84
2021/11/13 09:08:44;;;;;;;14.17;6.00;;;6.10;97.30;;;;;;5016743;28;20412;-85
2021/11/13 09:11:12;;;;;;;13.80;6.17;;;6.10;97.30;;;;;;5016191;28;20913;-85
2021/11/13 09:13:38;;;;;;;12.37;6.73;;;6.20;97.30;;;;;;5016727;28;20910;-84
2021/11/13 09:16:07;;;;;;;10.70;5.60;;;6.20;97.30;;;;;;5016835;28;20524;-84
2021/11/13 09:18:33;;;;;;;11.33;6.23;;;6.30;97.30;;;;;;5025731;28;20411;-84
2021/11/13 09:20:59;;;;;;;12.07;6.33;;;6.30;97.30;;;;;;5036220;28;20411;-85
2021/11/13 09:23:25;;;;;;;13.80;7.17;;;6.40;97.30;;;;;;5036089;28;20783;-85
2021/11/13 09:25:53;;;;;;;17.97;7.63;;;6.40;97.30;;;;;;5037754;28;20516;-85
2021/11/13 09:28:19;;;;;;;9.87;5.20;;;6.40;97.30;;;;;;5035615;28;20176;-84
2021/11/13 09:30:45;;;;;;;12.60;6.90;;;6.50;97.30;;;;;;5035411;28;20411;-84
2021/11/13 09:33:11;;;;;;;11.57;5.77;;;6.50;97.30;;;;;;5035341;28;20467;-83
2021/11/13 09:35:39;;;;;;;14.53;5.50;;;6.60;97.30;;;;;;5034844;28;20250;-83
2021/11/13 09:38:04;;;;;;;15.53;7.17;;;6.70;97.30;;;;;;5035485;28;20498;-83
2021/11/13 09:40:31;;;;;;;19.50;6.70;;;6.70;97.30;;;;;;5036128;28;20415;-84
2021/11/13 09:43:00;;;;;;;11.80;6.00;;;6.80;97.30;;;;;;5036702;28;20179;-84
2021/11/13 09:45:27;;;;;;;15.10;5.60;;;6.80;97.30;;;;;;5035862;28;20995;-85
2021/11/13 09:47:55;;;;;;;13.53;6.33;;;6.80;97.30;;;;;;5035439;28;20509;-84
2021/11/13 09:50:24;;;;;;;15.43;7.27;;;6.90;97.30;;;;;;5035490;28;20423;-85
2021/11/13 09:52:51;;;;;;;17.43;6.27;;;6.90;97.30;;;;;;5034955;28;20995;-84
2021/11/13 09:55:19;;;;;;;14.37;6.37;;;6.90;97.30;;;;;;5035413;28;20511;-86
2021/11/13 09:57:46;;;;;;;14.30;5.77;;;6.90;97.30;;;;;;5035289;28;20407;-84
2021/11/13 10:00:15;;;;;;;9.57;4.87;;;7.00;97.30;;;;;;5036437;28;20507;-85
2021/11/13 10:02:42;;;;;;;13.37;5.40;;;7.10;97.30;;;;;;5034807;28;20423;-86
2021/11/13 10:05:09;;;;;;;17.00;8.10;;;7.10;97.30;;;;;;5034031;28;20435;-85
2021/11/13 10:07:35;;;;;;;12.60;5.97;;;7.20;97.30;;;;;;5034936;28;20458;-85
2021/11/13 10:10:03;;;;;;;12.60;5.90;;;7.30;97.30;;;;;;5035256;28;20422;-83
2021/11/13 10:12:40;;;;;;;13.60;5.73;;;7.30;97.30;;;;;;5035196;28;20407;-85
2021/11/13 10:15:30;;;;;;;12.33;5.67;;;7.40;97.30;;;;;;5034835;28;20466;-83
2021/11/13 10:18:27;;;;;;;10.80;5.10;;;7.50;97.30;;;;;;5034878;28;20422;-84
2021/11/13 10:20:55;;;;;;;11.03;4.87;;;7.50;97.30;;;;;;5050892;28;20511;-85
2021/11/13 10:23:27;;;;;;;11.13;5.93;;;7.60;97.30;;;;;;5034656;28;20443;-85
2021/11/13 10:26:06;;;;;;;12.53;5.40;;;7.70;97.30;;;;;;5034522;28;20442;-85
2021/11/13 10:28:39;;;;;;;12.47;6.13;;;7.70;97.30;;;;;;5034298;28;20422;-85
2021/11/13 10:31:17;;;;;;;13.37;6.47;;;7.90;97.30;;;;;;5034607;28;20403;-85
2021/11/13 10:33:43;;;;;;;15.23;6.07;;;7.90;97.30;;;;;;5034619;28;20477;-85
2021/11/13 10:36:10;;;;;;;12.47;5.77;;;8.00;97.30;;;;;;5035286;28;20463;-84
2021/11/13 10:38:36;;;;;;;7.83;4.40;;;8.00;97.30;;;;;;5035470;28;20455;-85
2021/11/13 10:41:06;;;;;;;11.40;5.70;;;8.00;97.30;;;;;;5034157;28;20410;-84
2021/11/13 10:43:39;;;;;;;10.03;4.77;;;8.00;97.30;;;;;;5035006;28;20473;-85
2021/11/13 10:46:17;;;;;;;10.27;5.03;;;8.00;97.30;;;;;;5035339;28;20446;-85
2021/11/13 10:48:55;;;;;;;12.37;5.47;;;8.00;97.30;;;;;;5034206;28;20423;-86
2021/11/13 10:51:25;;;;;;;11.40;5.27;;;8.00;97.30;;;;;;5034025;28;20857;-85
2021/11/13 10:53:50;;;;;;;14.30;6.87;;;8.00;97.30;;;;;;5033977;28;20419;-85
2021/11/13 10:56:22;;;;;;;9.37;5.17;;;8.10;97.30;;;;;;5033324;28;20482;-84
2021/11/13 10:58:52;;;;;;;11.37;5.47;;;8.20;97.30;;;;;;5032663;28;20176;-84
2021/11/13 11:01:25;;;;;;;10.40;5.13;;;8.30;97.30;;;;;;5014340;28;20507;-85
2021/11/13 11:03:53;;;;;;;11.00;6.33;;;8.30;97.30;;;;;;5013892;28;20930;-85
2021/11/13 11:06:26;;;;;;;11.20;5.50;;;8.40;97.30;;;;;;5013774;28;20443;-85
2021/11/13 11:08:52;;;;;;;11.20;5.20;;;8.50;97.30;;;;;;5014558;28;20551;-86
2021/11/13 11:11:26;;;;;;;9.10;5.03;;;8.50;97.30;;;;;;5014187;28;20796;-86
2021/11/13 11:13:54;;;;;;;10.50;5.87;;;8.60;97.30;;;;;;5021885;28;20430;-85
2021/11/13 11:16:21;;;;;;;11.67;5.60;;;8.80;97.30;;;;;;5016755;28;20472;-84
2021/11/13 11:19:02;;;;;;;12.80;5.90;;;9.00;97.30;;;;;;5012792;28;20456;-84
2021/11/13 11:21:53;;;;;;;12.40;5.60;;;9.20;97.30;;;;;;5012684;28;20420;-84
2021/11/13 11:24:19;;;;;;;11.10;5.30;;;9.30;97.30;;;;;;5012236;28;20451;-85
2021/11/13 11:26:46;;;;;;;11.73;5.33;;;9.40;97.30;;;;;;5012948;28;20471;-84
2021/11/13 11:29:13;;;;;;;12.00;5.43;;;9.40;97.30;;;;;;5014421;28;20173;-85
2021/11/13 11:31:48;;;;;;;10.37;5.60;;;9.40;97.30;;;;;;5015003;28;20416;-85
2021/11/13 11:34:26;;;;;;;11.80;5.90;;;9.40;97.30;;;;;;5014523;28;20434;-85
2021/11/13 11:36:54;;;;;;;11.07;5.70;;;9.40;97.30;;;;;;5013171;28;20428;-85
2021/11/13 11:39:20;;;;;;;14.90;5.70;;;9.60;97.30;;;;;;5015716;28;20487;-85
2021/11/13 11:41:47;;;;;;;9.50;6.10;;;9.70;97.30;;;;;;5014536;28;20513;-85
2021/11/13 11:44:16;;;;;;;8.50;4.90;;;9.80;97.30;;;;;;5030695;28;20404;-85
2021/11/13 11:46:42;;;;;;;12.23;5.60;;;9.80;97.30;;;;;;5014030;28;20507;-84
2021/11/13 11:49:10;;;;;;;13.27;6.13;;;9.90;97.30;;;;;;5013370;28;20416;-85
2021/11/13 11:51:36;;;;;;;10.90;6.10;;;9.90;97.30;;;;;;5017318;28;20173;-85
2021/11/13 11:54:06;;;;;;;10.70;5.60;;;9.90;97.30;;;;;;5034393;28;20722;-84
2021/11/13 11:56:34;;;;;;;11.80;5.00;;;9.90;97.30;;;;;;5033699;28;20473;-85
2021/11/13 11:59:01;;;;;;;8.93;4.87;;;10.20;97.30;;;;;;5035097;28;20461;-84
2021/11/13 12:01:30;;;;;;;9.87;5.53;;;10.50;97.30;;;;;;5033323;28;20426;-81
2021/11/13 12:04:18;;;;;;;10.20;5.30;;;10.80;97.30;;;;;;5045356;28;20411;-83
2021/11/13 12:06:53;;;;;;;10.87;5.20;;;11.00;97.30;;;;;;5031493;28;20443;-85
2021/11/13 12:09:20;;;;;;;10.00;5.27;;;11.20;97.30;;;;;;5033909;28;20896;-83
2021/11/13 12:11:47;;;;;;;9.83;5.30;;;11.30;97.30;;;;;;5032860;28;20444;-85
2021/11/13 12:14:27;;;;;;;8.73;4.87;;;11.40;97.30;;;;;;5032136;28;20407;-87
2021/11/13 12:16:53;;;;;;;9.63;4.90;;;11.60;97.30;;;;;;5033020;28;20430;-84
2021/11/13 12:19:18;;;;;;;8.73;4.80;;;11.90;97.30;;;;;;5033220;28;20411;-85
2021/11/13 12:21:55;;;;;;;12.67;5.50;;;12.00;97.30;;;;;;5034341;28;20484;-84
2021/11/13 12:24:21;;;;;;;8.63;4.60;;;12.20;97.30;;;;;;5032819;28;20180;-84
2021/11/13 12:27:01;;;;;;;8.83;5.20;;;12.40;97.30;;;;;;5035744;28;20945;-84
2021/11/13 12:29:28;;;;;;;9.40;4.90;;;12.50;97.30;;;;;;5036678;28;20786;-84
2021/11/13 12:31:57;;;;;;;10.90;4.80;;;12.60;97.30;;;;;;5037252;28;20418;-84
2021/11/13 12:34:29;;;;;;;8.80;5.60;;;12.50;97.30;;;;;;5037882;28;20438;-84
2021/11/13 12:37:08;;;;;;;8.90;4.83;;;12.50;97.30;;;;;;5036992;28;20984;-85
2021/11/13 12:39:39;;;;;;;10.03;4.73;;;12.70;97.30;;;;;;5038472;28;20418;-81
2021/11/13 12:42:10;;;;;;;8.97;4.50;;;13.00;97.00;;;;;;5039931;28;20438;-81
2021/11/13 12:44:37;;;;;;;10.70;4.80;;;13.10;97.10;;;;;;5039665;28;20883;-82
2021/11/13 12:47:07;;;;;;;10.03;4.63;;;13.40;96.40;;;;;;5040373;28;20466;-81